Time;durP1;ratioP1;P1;durP2;ratioP2;P2;SDS_P1;SDS_P2;PMS_P1;PMS_P2;Temp;Humidity;BMP_temperature;BMP_pressure;BME280_temperature;BME280_humidity;BME280_pressure;Samples;Min_cycle;Max_cycle;Signal;HPM_P1;HPM_P2
2022/04/27 00:01:21;;;;;;;17.45;11.73;;;5.10;99.90;;;;;;5109452;28;20433;-63
2022/04/27 00:03:47;;;;;;;15.07;11.55;;;5.10;99.90;;;;;;5111533;28;20105;-63
2022/04/27 00:06:13;;;;;;;17.60;11.40;;;5.10;99.90;;;;;;5111995;28;20039;-63
2022/04/27 00:08:39;;;;;;;20.55;10.80;;;5.20;99.90;;;;;;5113160;28;20031;-63
2022/04/27 00:11:04;;;;;;;17.92;11.60;;;5.20;99.90;;;;;;5113053;28;20364;-63
2022/04/27 00:13:30;;;;;;;15.13;10.30;;;5.20;99.90;;;;;;5111507;28;20039;-63
2022/04/27 00:15:56;;;;;;;19.70;11.32;;;5.20;99.90;;;;;;5111602;28;20043;-63
2022/04/27 00:18:22;;;;;;;16.30;10.95;;;5.20;99.90;;;;;;5111733;28;20040;-63
2022/04/27 00:20:48;;;;;;;15.00;10.68;;;5.30;99.90;;;;;;5112727;28;20104;-63
2022/04/27 00:23:14;;;;;;;15.00;10.75;;;5.30;99.90;;;;;;5112984;28;20479;-63
2022/04/27 00:25:40;;;;;;;15.85;11.52;;;5.30;99.90;;;;;;5112947;28;20038;-63
2022/04/27 00:28:06;;;;;;;20.15;11.90;;;5.40;99.90;;;;;;5111317;28;20676;-63
2022/04/27 00:30:32;;;;;;;18.45;13.15;;;5.40;99.90;;;;;;5108790;28;20043;-63
2022/04/27 00:32:58;;;;;;;21.17;12.52;;;5.40;99.90;;;;;;5111279;28;20389;-63
2022/04/27 00:35:24;;;;;;;16.98;12.52;;;5.40;99.90;;;;;;5115031;28;20080;-63
2022/04/27 00:37:49;;;;;;;19.75;12.07;;;5.50;99.90;;;;;;5098021;28;20093;-63
2022/04/27 00:40:15;;;;;;;20.77;12.43;;;5.50;99.90;;;;;;5114954;28;20073;-63
2022/04/27 00:42:41;;;;;;;20.00;11.90;;;5.50;99.90;;;;;;5114957;28;20082;-63
2022/04/27 00:45:07;;;;;;;17.90;12.60;;;5.60;99.90;;;;;;5114404;28;20039;-63
2022/04/27 00:47:33;;;;;;;14.38;11.13;;;5.60;99.90;;;;;;5114486;28;20036;-63
2022/04/27 00:49:59;;;;;;;15.32;11.70;;;5.60;99.90;;;;;;5115914;28;20066;-63
2022/04/27 00:52:25;;;;;;;14.43;11.35;;;5.60;99.90;;;;;;5114724;28;20049;-63
2022/04/27 00:54:52;;;;;;;15.82;11.65;;;5.70;99.90;;;;;;5116083;28;20126;-63
2022/04/27 00:57:27;;;;;;;17.70;12.35;;;5.70;99.90;;;;;;5114696;28;20118;-63
2022/04/27 00:59:54;;;;;;;17.35;11.52;;;5.70;99.90;;;;;;5115828;28;20069;-63
2022/04/27 01:02:20;;;;;;;17.02;11.52;;;5.80;99.90;;;;;;5112451;28;20051;-63
2022/04/27 01:04:46;;;;;;;20.88;12.57;;;5.80;99.90;;;;;;5115986;28;20027;-63
2022/04/27 01:07:13;;;;;;;16.75;13.00;;;5.80;99.90;;;;;;5115761;28;20123;-63
2022/04/27 01:09:40;;;;;;;17.05;12.48;;;5.80;99.90;;;;;;5115795;28;20077;-63
2022/04/27 01:12:07;;;;;;;19.48;11.82;;;5.80;99.90;;;;;;5114384;28;20043;-63
2022/04/27 01:14:50;;;;;;;16.77;12.50;;;5.90;99.90;;;;;;5080824;28;20082;-63
2022/04/27 01:17:16;;;;;;;14.80;11.30;;;5.90;99.90;;;;;;5114532;28;20031;-63
2022/04/27 01:19:43;;;;;;;17.38;11.80;;;5.90;99.90;;;;;;5115602;28;20032;-63
2022/04/27 01:22:09;;;;;;;18.25;11.75;;;6.00;99.90;;;;;;5114279;28;20104;-63
2022/04/27 01:24:36;;;;;;;15.52;11.00;;;6.00;99.90;;;;;;5114099;28;20043;-63
2022/04/27 01:27:03;;;;;;;16.38;11.85;;;6.00;99.90;;;;;;5114179;28;20044;-63
2022/04/27 01:29:29;;;;;;;16.05;11.68;;;6.10;99.90;;;;;;5113788;28;20164;-63
2022/04/27 01:31:56;;;;;;;20.77;11.70;;;6.10;99.90;;;;;;5113260;28;20160;-63
2022/04/27 01:34:22;;;;;;;16.50;10.30;;;6.20;99.90;;;;;;5115355;28;20118;-63
2022/04/27 01:36:48;;;;;;;18.17;12.48;;;6.10;99.90;;;;;;5113951;28;20071;-63
2022/04/27 01:39:14;;;;;;;15.50;12.05;;;6.20;99.90;;;;;;5096616;28;20047;-63
2022/04/27 01:41:40;;;;;;;15.65;11.95;;;6.20;99.90;;;;;;5115082;28;20038;-63
2022/04/27 01:44:06;;;;;;;22.40;12.68;;;6.20;99.90;;;;;;5113478;28;20048;-63
2022/04/27 01:46:32;;;;;;;18.88;11.88;;;6.30;99.90;;;;;;5115256;28;20118;-63
2022/04/27 01:48:58;;;;;;;17.55;11.55;;;6.30;99.90;;;;;;5114884;28;20056;-63
2022/04/27 01:54:15;;;;;;;14.65;11.10;;;6.40;99.90;;;;;;5114827;28;20039;-63
2022/04/27 01:56:45;;;;;;;14.93;11.82;;;6.40;99.90;;;;;;5096709;28;20040;-63
2022/04/27 01:59:12;;;;;;;17.25;11.57;;;6.40;99.90;;;;;;5114625;28;20096;-63
2022/04/27 02:01:39;;;;;;;18.38;12.23;;;6.50;99.90;;;;;;5112542;28;20029;-63
2022/04/27 02:04:05;;;;;;;20.33;11.77;;;6.50;99.90;;;;;;5114585;28;20079;-63
2022/04/27 02:06:31;;;;;;;19.73;11.05;;;6.50;99.90;;;;;;5114692;28;20066;-63
2022/04/27 02:08:57;;;;;;;16.92;10.25;;;6.50;99.90;;;;;;5113212;28;20043;-63
2022/04/27 02:11:26;;;;;;;17.33;11.25;;;6.60;99.90;;;;;;5113570;28;20089;-63
2022/04/27 02:13:55;;;;;;;20.33;10.73;;;6.60;99.90;;;;;;5113156;28;20074;-63
2022/04/27 02:16:25;;;;;;;17.25;11.60;;;6.60;99.90;;;;;;5096313;28;20035;-63
2022/04/27 02:18:51;;;;;;;17.67;10.70;;;6.60;99.90;;;;;;5113269;28;20442;-63
2022/04/27 02:21:17;;;;;;;18.33;11.50;;;6.70;99.90;;;;;;5112897;28;20104;-63
2022/04/27 02:23:47;;;;;;;18.58;11.30;;;6.70;99.90;;;;;;5114203;28;20213;-63
2022/04/27 02:26:13;;;;;;;17.63;11.48;;;6.70;99.90;;;;;;5112904;28;20055;-63
2022/04/27 02:28:39;;;;;;;14.90;11.35;;;6.70;99.90;;;;;;5114117;28;20458;-63
2022/04/27 02:31:05;;;;;;;16.88;10.43;;;6.70;99.90;;;;;;5114153;28;20040;-63
2022/04/27 02:33:31;;;;;;;15.57;10.93;;;6.70;99.90;;;;;;5111843;28;20066;-63
2022/04/27 02:35:57;;;;;;;14.98;10.85;;;6.70;99.90;;;;;;5112679;28;20075;-63
2022/04/27 02:38:23;;;;;;;12.27;9.50;;;6.80;99.90;;;;;;5113849;28;20046;-63
2022/04/27 02:40:49;;;;;;;17.33;10.93;;;6.80;99.90;;;;;;5113721;28;20383;-63
2022/04/27 02:43:16;;;;;;;13.90;9.82;;;6.80;99.90;;;;;;5114124;28;20035;-63
2022/04/27 02:45:43;;;;;;;17.25;11.38;;;6.80;99.90;;;;;;5112497;28;20055;-63
2022/04/27 02:48:09;;;;;;;18.15;10.43;;;6.90;99.90;;;;;;5112362;28;20047;-63
2022/04/27 02:53:21;;;;;;;14.77;9.75;;;6.90;99.90;;;;;;5113939;28;20039;-62
2022/04/27 02:55:47;;;;;;;5.72;2.90;;;6.90;99.90;;;;;;5094948;28;20472;-63
2022/04/27 02:58:13;;;;;;;4.32;2.38;;;6.90;99.90;;;;;;5112645;28;20055;-63
2022/04/27 03:00:39;;;;;;;5.82;3.03;;;6.90;99.90;;;;;;5112227;28;20570;-63
2022/04/27 03:03:08;;;;;;;6.03;3.00;;;6.90;99.90;;;;;;5111416;28;20118;-63
2022/04/27 03:05:34;;;;;;;4.53;2.28;;;7.00;99.90;;;;;;5113420;28;20072;-63
2022/04/27 03:08:00;;;;;;;6.75;2.88;;;7.00;99.90;;;;;;5113529;28;20066;-63
2022/04/27 03:10:26;;;;;;;4.18;2.75;;;7.00;99.90;;;;;;5112133;28;20059;-63
2022/04/27 03:12:51;;;;;;;5.40;3.42;;;7.00;99.90;;;;;;5112131;28;20050;-63
2022/04/27 03:15:17;;;;;;;5.50;3.25;;;7.10;99.90;;;;;;5112076;28;20047;-63
2022/04/27 03:17:43;;;;;;;5.07;3.47;;;7.10;99.90;;;;;;5112308;28;20078;-63
2022/04/27 03:20:09;;;;;;;8.68;3.75;;;7.20;99.90;;;;;;5112037;28;20384;-63
2022/04/27 03:22:35;;;;;;;6.22;3.88;;;7.20;99.90;;;;;;5113575;28;20055;-63
2022/04/27 03:25:01;;;;;;;6.53;3.30;;;7.20;99.90;;;;;;5111997;28;20102;-63
2022/04/27 03:27:27;;;;;;;5.65;4.10;;;7.20;99.90;;;;;;5112253;28;20043;-63
2022/04/27 03:29:52;;;;;;;7.68;5.57;;;7.20;99.90;;;;;;5112063;28;20384;-63
2022/04/27 03:32:19;;;;;;;7.10;4.63;;;7.20;99.90;;;;;;5110970;28;20039;-63
2022/04/27 03:34:46;;;;;;;8.52;4.60;;;7.20;99.90;;;;;;5113184;28;20054;-63
2022/04/27 03:37:12;;;;;;;9.88;5.50;;;7.20;99.90;;;;;;5113315;28;20093;-63
2022/04/27 03:39:38;;;;;;;7.35;4.55;;;7.20;99.90;;;;;;5112649;28;20031;-63
2022/04/27 03:42:04;;;;;;;11.38;4.65;;;7.20;99.90;;;;;;5108257;28;20083;-63
2022/04/27 03:44:30;;;;;;;7.10;4.85;;;7.20;99.90;;;;;;5112670;28;20043;-63
2022/04/27 03:46:55;;;;;;;7.18;4.40;;;7.20;99.90;;;;;;5111706;28;20093;-63
2022/04/27 03:49:21;;;;;;;7.63;4.35;;;7.20;99.90;;;;;;5111611;28;20126;-63
2022/04/27 03:51:48;;;;;;;6.97;4.53;;;7.20;99.90;;;;;;5113220;28;20122;-63
2022/04/27 03:54:13;;;;;;;6.30;4.50;;;7.20;99.90;;;;;;5111706;28;20051;-63
2022/04/27 03:56:39;;;;;;;7.40;4.32;;;7.20;99.90;;;;;;5111619;28;20047;-63
2022/04/27 03:59:05;;;;;;;7.97;5.00;;;7.20;99.90;;;;;;5111697;28;20103;-63
2022/04/27 04:01:31;;;;;;;10.32;4.18;;;7.20;99.90;;;;;;5109429;28;20051;-63
2022/04/27 04:03:59;;;;;;;7.70;4.03;;;7.20;99.90;;;;;;5112814;28;20057;-63
2022/04/27 04:06:25;;;;;;;7.78;4.50;;;7.20;99.90;;;;;;5111603;28;20044;-63
2022/04/27 04:08:50;;;;;;;5.40;4.28;;;7.20;99.90;;;;;;5116837;28;20043;-63
2022/04/27 04:11:19;;;;;;;7.90;4.82;;;7.20;99.90;;;;;;5115473;28;20043;-63
2022/04/27 04:13:45;;;;;;;7.88;4.78;;;7.20;99.90;;;;;;5116761;28;20051;-63
2022/04/27 04:16:10;;;;;;;5.95;3.70;;;7.20;99.90;;;;;;5116521;28;20044;-63
2022/04/27 04:18:36;;;;;;;10.80;4.20;;;7.20;99.90;;;;;;5115322;28;20050;-63
2022/04/27 04:21:02;;;;;;;5.10;4.20;;;7.20;99.90;;;;;;5115469;28;20158;-63
2022/04/27 04:23:28;;;;;;;10.27;4.18;;;7.20;99.90;;;;;;5115370;28;20055;-63
2022/04/27 04:28:37;;;;;;;7.13;4.13;;;7.20;99.90;;;;;;5116474;28;20039;-63
2022/04/27 04:31:04;;;;;;;9.80;5.03;;;7.20;99.90;;;;;;5116264;28;20050;-63
2022/04/27 04:33:31;;;;;;;7.15;3.97;;;7.30;99.90;;;;;;5112951;28;20039;-63
2022/04/27 04:35:57;;;;;;;6.13;4.22;;;7.20;99.90;;;;;;5116445;28;20122;-63
2022/04/27 04:38:23;;;;;;;9.50;4.20;;;7.30;99.90;;;;;;5115071;28;20223;-63
2022/04/27 04:40:50;;;;;;;6.60;3.83;;;7.30;99.90;;;;;;5114909;28;20118;-63
2022/04/27 04:43:15;;;;;;;6.78;4.15;;;7.30;99.90;;;;;;5116274;28;20114;-63
2022/04/27 04:45:42;;;;;;;5.50;3.72;;;7.30;99.90;;;;;;5115024;28;20127;-63
2022/04/27 04:48:08;;;;;;;6.13;3.35;;;7.30;99.90;;;;;;5115930;28;20468;-63
2022/04/27 04:50:36;;;;;;;6.30;3.47;;;7.30;99.90;;;;;;5115065;28;20446;-63
2022/04/27 04:53:02;;;;;;;6.00;4.20;;;7.40;99.90;;;;;;5116151;27;20039;-63
2022/04/27 04:55:28;;;;;;;6.72;4.53;;;7.40;99.90;;;;;;5114739;28;20495;-63
2022/04/27 04:57:53;;;;;;;11.07;3.97;;;7.40;99.90;;;;;;5114537;28;20052;-63
2022/04/27 05:00:19;;;;;;;5.53;3.97;;;7.40;99.90;;;;;;5114504;28;20039;-63
2022/04/27 05:02:45;;;;;;;6.10;3.70;;;7.40;99.90;;;;;;5113477;28;20130;-63
2022/04/27 05:05:11;;;;;;;4.40;3.70;;;7.50;99.90;;;;;;5114790;28;20044;-63
2022/04/27 05:07:37;;;;;;;6.65;3.83;;;7.50;99.90;;;;;;5114382;28;20050;-63
2022/04/27 05:10:04;;;;;;;6.65;4.30;;;7.50;99.90;;;;;;5114416;28;20052;-63
2022/04/27 05:12:30;;;;;;;7.68;4.35;;;7.60;99.90;;;;;;5115620;28;20040;-63
2022/04/27 05:14:56;;;;;;;6.18;4.20;;;7.60;99.90;;;;;;5097440;28;20112;-63
2022/04/27 05:17:24;;;;;;;17.90;6.22;;;7.60;99.90;;;;;;5113886;28;20036;-63
2022/04/27 05:19:52;;;;;;;6.03;4.43;;;7.70;99.90;;;;;;5115323;28;20047;-63
2022/04/27 05:22:18;;;;;;;6.40;4.18;;;7.70;99.90;;;;;;5114116;28;20090;-63
2022/04/27 05:24:44;;;;;;;7.60;4.68;;;7.70;99.90;;;;;;5114066;28;20464;-63
2022/04/27 05:27:10;;;;;;;6.07;4.25;;;7.70;99.90;;;;;;5114196;28;20039;-63
2022/04/27 05:32:20;;;;;;;6.47;4.47;;;7.80;99.90;;;;;;5111033;28;20104;-63
2022/04/27 05:34:45;;;;;;;5.45;4.35;;;7.80;99.90;;;;;;5114207;28;20462;-63
2022/04/27 05:37:12;;;;;;;8.23;4.20;;;7.90;99.90;;;;;;5112882;28;20042;-63
2022/04/27 05:39:38;;;;;;;5.82;3.90;;;7.80;99.90;;;;;;5109953;28;20096;-63
2022/04/27 05:42:04;;;;;;;5.63;4.10;;;7.90;99.90;;;;;;5112972;28;20105;-63
2022/04/27 05:44:31;;;;;;;5.47;4.22;;;7.90;99.90;;;;;;5112831;28;20495;-63
2022/04/27 05:46:58;;;;;;;6.82;4.07;;;8.00;99.90;;;;;;5095973;28;20067;-63
2022/04/27 05:49:24;;;;;;;7.65;4.57;;;8.00;99.90;;;;;;5112717;28;20061;-63
2022/04/27 05:51:50;;;;;;;6.22;4.50;;;8.00;99.90;;;;;;5113343;28;20056;-63
2022/04/27 05:54:16;;;;;;;6.13;4.10;;;8.00;99.90;;;;;;5112585;28;20081;-63
2022/04/27 05:56:43;;;;;;;9.13;4.03;;;8.10;99.90;;;;;;5112717;28;20039;-63
2022/04/27 05:59:09;;;;;;;6.38;4.30;;;8.20;99.90;;;;;;5114036;28;20381;-63
2022/04/27 06:01:36;;;;;;;7.35;4.65;;;8.20;99.90;;;;;;5111278;28;20104;-63
2022/04/27 06:04:02;;;;;;;8.48;4.13;;;8.30;99.90;;;;;;5109517;28;20051;-63
2022/04/27 06:06:28;;;;;;;6.53;4.22;;;8.30;99.90;;;;;;5113183;28;20042;-63
2022/04/27 06:08:54;;;;;;;6.00;4.65;;;8.30;99.90;;;;;;5112118;28;20036;-63
2022/04/27 06:11:21;;;;;;;5.72;4.13;;;8.40;99.90;;;;;;5112504;28;20036;-63
2022/04/27 06:13:47;;;;;;;7.03;4.78;;;8.40;99.90;;;;;;5112145;28;20047;-63
2022/04/27 06:16:14;;;;;;;6.82;5.00;;;8.50;99.90;;;;;;5095320;28;20051;-63
2022/04/27 06:18:41;;;;;;;8.55;4.78;;;8.60;99.90;;;;;;5112007;28;20065;-63
2022/04/27 06:21:10;;;;;;;10.15;4.43;;;8.60;99.90;;;;;;5113410;28;20403;-63
2022/04/27 06:23:39;;;;;;;8.73;4.60;;;8.70;99.90;;;;;;5113071;28;20048;-63
2022/04/27 06:26:06;;;;;;;8.20;4.90;;;8.70;99.90;;;;;;5113449;28;20032;-63
2022/04/27 06:28:33;;;;;;;7.30;4.05;;;8.70;99.90;;;;;;5113286;28;20067;-63
2022/04/27 06:30:59;;;;;;;7.13;4.78;;;8.80;99.90;;;;;;5111309;28;20377;-63
2022/04/27 06:33:25;;;;;;;6.10;4.18;;;8.80;99.90;;;;;;5109458;28;20039;-63
2022/04/27 06:35:51;;;;;;;8.00;4.35;;;8.90;99.90;;;;;;5113082;28;20467;-63
2022/04/27 06:38:17;;;;;;;5.03;4.05;;;8.90;99.90;;;;;;5108601;28;20075;-63
2022/04/27 06:40:43;;;;;;;7.20;3.97;;;8.90;99.90;;;;;;5111885;28;20114;-63
2022/04/27 06:43:09;;;;;;;6.28;3.70;;;9.00;99.90;;;;;;5112912;28;20096;-63
2022/04/27 06:45:36;;;;;;;7.70;3.83;;;9.00;99.90;;;;;;5111646;28;20084;-63
2022/04/27 06:48:03;;;;;;;5.82;3.42;;;9.00;99.90;;;;;;5111442;28;20043;-63
2022/04/27 06:50:29;;;;;;;7.13;4.97;;;9.00;99.90;;;;;;5112814;28;20488;-63
2022/04/27 06:52:59;;;;;;;8.95;4.90;;;9.10;99.90;;;;;;5094691;28;20031;-64
2022/04/27 06:55:26;;;;;;;3.67;2.80;;;9.10;99.90;;;;;;5112731;28;20039;-63
2022/04/27 06:57:53;;;;;;;4.70;3.78;;;9.20;99.90;;;;;;5113044;28;20096;-63
2022/04/27 07:00:19;;;;;;;7.10;3.58;;;9.30;99.90;;;;;;5111635;28;20400;-64
2022/04/27 07:02:45;;;;;;;7.03;4.35;;;9.30;99.90;;;;;;5110530;28;20043;-63
2022/04/27 07:05:18;;;;;;;6.53;3.60;;;9.40;99.90;;;;;;5112165;28;20039;-63
2022/04/27 07:07:47;;;;;;;6.32;3.90;;;9.40;99.90;;;;;;5112097;28;20027;-72
2022/04/27 07:10:14;;;;;;;5.47;3.78;;;9.50;99.90;;;;;;5111855;28;20047;-72
2022/04/27 07:12:42;;;;;;;5.40;3.40;;;9.60;99.90;;;;;;5112863;28;20044;-72
2022/04/27 07:15:09;;;;;;;9.90;4.07;;;9.60;99.90;;;;;;5111851;28;20480;-72
2022/04/27 07:17:35;;;;;;;5.38;3.15;;;9.70;99.90;;;;;;5109663;28;20047;-72
2022/04/27 07:20:01;;;;;;;5.22;3.75;;;9.80;99.90;;;;;;5112621;28;20111;-72
2022/04/27 07:22:26;;;;;;;5.95;3.60;;;9.80;99.90;;;;;;5112979;28;20539;-72
2022/04/27 07:24:53;;;;;;;4.72;3.25;;;9.80;99.90;;;;;;5111837;28;20032;-72
2022/04/27 07:27:19;;;;;;;7.68;4.13;;;9.90;99.90;;;;;;5110652;28;20032;-72
2022/04/27 07:29:45;;;;;;;4.43;2.03;;;9.90;99.90;;;;;;5111442;28;20040;-72
2022/04/27 07:32:11;;;;;;;5.47;2.72;;;10.00;99.90;;;;;;5110616;28;20065;-72
2022/04/27 07:34:37;;;;;;;13.07;3.33;;;10.00;99.90;;;;;;5111663;28;20038;-72
2022/04/27 07:37:05;;;;;;;3.88;2.25;;;10.10;99.90;;;;;;5111349;28;20396;-72
2022/04/27 07:39:31;;;;;;;3.88;2.28;;;10.20;99.90;;;;;;5108682;28;20031;-72
2022/04/27 07:41:57;;;;;;;7.70;2.80;;;10.20;99.90;;;;;;5115266;28;20078;-72
2022/04/27 07:44:23;;;;;;;9.07;4.43;;;10.30;99.90;;;;;;5115780;28;20113;-73
2022/04/27 07:46:49;;;;;;;5.40;3.15;;;10.30;99.90;;;;;;5115888;28;20385;-72
2022/04/27 07:49:16;;;;;;;4.63;2.92;;;10.40;99.90;;;;;;5098138;28;20048;-72
2022/04/27 07:51:42;;;;;;;7.70;3.35;;;10.40;99.90;;;;;;5116999;28;20420;-72
2022/04/27 07:54:08;;;;;;;4.72;2.92;;;10.50;99.90;;;;;;5115560;28;20172;-72
2022/04/27 07:56:34;;;;;;;6.57;3.88;;;10.50;99.90;;;;;;5113160;28;20122;-72
2022/04/27 07:58:59;;;;;;;8.73;3.97;;;10.50;99.90;;;;;;5115226;28;20135;-73
2022/04/27 08:01:25;;;;;;;8.82;3.78;;;10.50;99.90;;;;;;5113181;28;20046;-74
2022/04/27 08:03:51;;;;;;;8.30;4.40;;;10.50;99.90;;;;;;5115144;28;20048;-74
2022/04/27 08:06:18;;;;;;;11.98;4.45;;;10.50;99.90;;;;;;5111688;28;20475;-74
2022/04/27 08:08:44;;;;;;;10.60;3.90;;;10.50;99.90;;;;;;5097423;28;20093;-75
2022/04/27 08:11:12;;;;;;;9.90;4.38;;;10.40;99.90;;;;;;5114759;28;20043;-75
2022/04/27 08:13:37;;;;;;;10.93;4.10;;;10.40;99.90;;;;;;5114636;28;20046;-73
2022/04/27 08:16:03;;;;;;;12.65;4.35;;;10.40;99.90;;;;;;5116658;28;20043;-73
2022/04/27 08:18:29;;;;;;;12.20;4.63;;;10.40;99.90;;;;;;5116358;28;20124;-73
2022/04/27 08:23:40;;;;;;;10.30;4.82;;;10.40;99.90;;;;;;5115469;28;20047;-74
2022/04/27 08:26:07;;;;;;;14.00;5.00;;;10.40;99.90;;;;;;5116577;28;20075;-73
2022/04/27 08:28:37;;;;;;;14.20;4.45;;;10.50;99.90;;;;;;5115077;28;20101;-73
2022/04/27 08:31:03;;;;;;;12.50;5.20;;;10.50;99.90;;;;;;5115146;28;20051;-73
2022/04/27 08:33:29;;;;;;;12.52;4.90;;;10.50;99.90;;;;;;5112994;28;20044;-72
2022/04/27 08:35:57;;;;;;;10.85;3.92;;;10.50;99.90;;;;;;5098144;28;20039;-73
2022/04/27 08:38:24;;;;;;;11.52;4.32;;;10.50;99.90;;;;;;5115357;28;20035;-74
2022/04/27 08:40:50;;;;;;;15.10;3.67;;;10.60;99.90;;;;;;5115048;28;20039;-74
2022/04/27 08:43:15;;;;;;;9.80;3.97;;;10.70;99.90;;;;;;5116217;28;20047;-74
2022/04/27 08:45:44;;;;;;;9.95;4.20;;;10.70;99.90;;;;;;5114805;28;20075;-74
2022/04/27 08:48:16;;;;;;;13.38;3.80;;;10.80;99.90;;;;;;5115785;28;21262;-73
2022/04/27 08:50:42;;;;;;;11.82;4.15;;;10.90;99.90;;;;;;5115685;28;20097;-74
2022/04/27 08:53:08;;;;;;;16.27;5.47;;;11.00;99.90;;;;;;5114831;28;20503;-74
2022/04/27 08:55:39;;;;;;;9.77;3.78;;;11.10;99.90;;;;;;5114477;28;20066;-74
2022/04/27 08:58:12;;;;;;;13.80;4.13;;;11.20;99.90;;;;;;5113849;28;20391;-75
2022/04/27 09:00:39;;;;;;;11.43;3.60;;;11.20;99.90;;;;;;5113066;28;20035;-76
2022/04/27 09:03:23;;;;;;;11.35;3.63;;;11.40;99.90;;;;;;5112065;28;20132;-75
2022/04/27 09:05:54;;;;;;;14.00;4.20;;;11.40;99.90;;;;;;5097184;28;20039;-74
2022/04/27 09:08:20;;;;;;;14.55;3.85;;;11.50;99.90;;;;;;5112112;28;20028;-74
2022/04/27 09:10:47;;;;;;;13.65;3.75;;;11.60;99.90;;;;;;5115458;28;20047;-73
2022/04/27 09:13:12;;;;;;;9.98;3.60;;;11.60;99.90;;;;;;5097179;28;20130;-74
2022/04/27 09:15:39;;;;;;;10.25;3.25;;;11.70;99.90;;;;;;5114149;28;20487;-73
2022/04/27 09:21:01;;;;;;;7.38;3.20;;;12.00;99.90;;;;;;5113346;28;20055;-74
2022/04/27 09:23:28;;;;;;;8.35;3.03;;;12.10;99.90;;;;;;5112421;28;20075;-73
2022/04/27 09:25:55;;;;;;;11.10;3.58;;;12.30;99.90;;;;;;5115078;28;20063;-74
2022/04/27 09:28:23;;;;;;;9.95;3.55;;;12.30;99.90;;;;;;5112025;28;20038;-73
2022/04/27 09:30:49;;;;;;;12.55;3.80;;;12.50;99.90;;;;;;5114418;28;20117;-73
2022/04/27 09:33:34;;;;;;;6.93;2.88;;;12.60;99.90;;;;;;5112741;28;20031;-73
2022/04/27 09:36:00;;;;;;;11.05;3.50;;;12.90;99.90;;;;;;5112018;28;20634;-73
2022/04/27 09:38:26;;;;;;;9.40;3.13;;;13.00;99.90;;;;;;5112852;28;20035;-73
2022/04/27 09:40:54;;;;;;;9.20;2.63;;;13.20;99.90;;;;;;5111687;28;20078;-73
2022/04/27 09:43:48;;;;;;;11.07;2.88;;;13.30;99.90;;;;;;5113900;28;20042;-73
2022/04/27 09:46:24;;;;;;;6.68;3.00;;;13.50;99.90;;;;;;5111512;28;20035;-73
2022/04/27 09:49:07;;;;;;;12.55;3.17;;;13.50;99.90;;;;;;5112066;28;20079;-74
2022/04/27 09:51:46;;;;;;;7.22;3.38;;;13.70;99.90;;;;;;5112377;28;20035;-76
2022/04/27 09:54:16;;;;;;;8.18;3.08;;;13.80;99.90;;;;;;5112258;28;20502;-74
2022/04/27 09:56:47;;;;;;;9.18;3.75;;;13.80;99.90;;;;;;5103940;28;20047;-74
2022/04/27 09:59:14;;;;;;;5.80;2.40;;;14.00;99.90;;;;;;5111064;28;20115;-74
2022/04/27 10:01:41;;;;;;;7.97;2.85;;;14.10;99.90;;;;;;5112106;28;20857;-75
2022/04/27 10:04:09;;;;;;;7.68;3.00;;;14.20;99.90;;;;;;5113079;28;20038;-74
2022/04/27 10:06:36;;;;;;;8.45;3.08;;;14.30;99.90;;;;;;5112863;28;20035;-74
2022/04/27 10:09:04;;;;;;;8.50;2.65;;;14.40;99.90;;;;;;5112969;28;20088;-74
2022/04/27 10:11:32;;;;;;;8.05;2.63;;;14.40;99.90;;;;;;5112796;28;20065;-75
2022/04/27 10:13:58;;;;;;;6.22;3.00;;;14.30;99.90;;;;;;5113138;28;20122;-75
2022/04/27 10:16:25;;;;;;;4.88;2.35;;;14.20;99.90;;;;;;5112961;28;20134;-74
2022/04/27 10:18:54;;;;;;;7.57;2.00;;;14.10;99.90;;;;;;5094063;28;20048;-75
2022/04/27 10:21:57;;;;;;;6.18;2.60;;;14.00;99.90;;;;;;5088178;28;20074;-74
2022/04/27 10:24:37;;;;;;;9.98;3.08;;;13.70;99.90;;;;;;5113006;28;20042;-74
2022/04/27 10:27:20;;;;;;;9.00;2.90;;;13.40;99.90;;;;;;5096013;28;20045;-74
2022/04/27 10:29:52;;;;;;;10.60;2.95;;;13.20;99.90;;;;;;5112596;28;20036;-74
2022/04/27 10:32:36;;;;;;;7.45;2.65;;;13.00;99.90;;;;;;5110840;28;20082;-73
2022/04/27 10:35:15;;;;;;;6.40;2.67;;;12.80;99.90;;;;;;5112621;28;20084;-74
2022/04/27 10:37:59;;;;;;;8.70;2.88;;;12.60;99.90;;;;;;5112725;28;20591;-74
2022/04/27 10:40:34;;;;;;;11.45;3.25;;;12.50;99.90;;;;;;5113831;28;20070;-74
2022/04/27 10:43:15;;;;;;;9.93;3.38;;;12.40;99.90;;;;;;5113855;28;20044;-75
2022/04/27 10:45:45;;;;;;;8.90;3.15;;;12.40;99.90;;;;;;5113724;28;20040;-75
2022/04/27 10:48:16;;;;;;;7.10;3.50;;;12.20;99.90;;;;;;5112315;28;20069;-74
2022/04/27 10:51:03;;;;;;;11.13;3.03;;;12.20;99.90;;;;;;5112756;28;20384;-74
2022/04/27 10:53:40;;;;;;;11.50;3.25;;;12.00;99.90;;;;;;5113679;28;20082;-74
2022/04/27 10:56:26;;;;;;;9.85;3.20;;;11.90;99.90;;;;;;5112334;28;20043;-74
2022/04/27 10:58:52;;;;;;;13.63;3.08;;;12.00;99.90;;;;;;5113624;28;20043;-74
2022/04/27 11:01:30;;;;;;;9.52;2.95;;;12.00;99.90;;;;;;5112179;28;20101;-74
2022/04/27 11:04:06;;;;;;;13.50;4.25;;;12.10;99.90;;;;;;5113503;28;20044;-74
2022/04/27 11:07:05;;;;;;;11.20;3.55;;;12.20;99.90;;;;;;5113543;28;20039;-74
2022/04/27 11:09:48;;;;;;;11.77;3.00;;;12.20;99.90;;;;;;5113448;28;20036;-73
2022/04/27 11:12:14;;;;;;;7.10;3.13;;;12.20;99.90;;;;;;5113412;28;20507;-74
2022/04/27 11:14:41;;;;;;;8.35;3.30;;;12.10;99.90;;;;;;5112239;28;20473;-75
2022/04/27 11:17:07;;;;;;;9.85;3.22;;;12.10;99.90;;;;;;5112645;28;20031;-74
2022/04/27 11:19:34;;;;;;;11.23;2.95;;;12.10;99.90;;;;;;5111757;28;20051;-74
2022/04/27 11:22:15;;;;;;;8.40;3.30;;;12.10;99.90;;;;;;5111409;28;20040;-74
2022/04/27 11:24:42;;;;;;;6.30;3.17;;;12.20;99.90;;;;;;5109976;28;20045;-74
2022/04/27 11:27:08;;;;;;;8.75;3.10;;;12.20;99.90;;;;;;5092587;28;20042;-74
2022/04/27 11:29:55;;;;;;;9.63;3.40;;;12.30;99.90;;;;;;5113201;28;20055;-74
2022/04/27 11:32:21;;;;;;;4.95;2.53;;;12.40;99.90;;;;;;5108574;28;20048;-73
2022/04/27 11:34:48;;;;;;;8.52;3.33;;;12.40;99.90;;;;;;5094977;28;20051;-74
2022/04/27 11:37:20;;;;;;;8.90;3.20;;;12.50;99.90;;;;;;5111994;28;20100;-73
2022/04/27 11:39:47;;;;;;;11.48;3.45;;;12.50;99.90;;;;;;5113074;28;20098;-74
2022/04/27 11:42:13;;;;;;;7.85;3.03;;;12.50;99.90;;;;;;5113238;28;20035;-74
2022/04/27 11:44:40;;;;;;;13.50;2.83;;;12.60;99.90;;;;;;5111485;28;20119;-74
2022/04/27 11:47:31;;;;;;;10.05;3.78;;;12.70;99.90;;;;;;5108451;28;20043;-73
2022/04/27 11:49:59;;;;;;;12.23;3.20;;;12.80;99.90;;;;;;5112783;28;20059;-74
2022/04/27 11:52:26;;;;;;;8.63;3.28;;;12.80;99.90;;;;;;5108778;28;20077;-74
2022/04/27 11:55:21;;;;;;;11.15;3.75;;;12.80;99.90;;;;;;5111730;28;20050;-74
2022/04/27 11:57:46;;;;;;;10.63;4.32;;;12.80;99.90;;;;;;5111830;28;20062;-74
2022/04/27 12:00:20;;;;;;;11.25;3.88;;;12.70;99.90;;;;;;5108453;28;20479;-73
2022/04/27 12:02:47;;;;;;;12.45;3.47;;;12.50;99.90;;;;;;5110434;28;20101;-74
2022/04/27 12:05:16;;;;;;;12.68;3.00;;;12.40;99.90;;;;;;5111533;28;20544;-73
2022/04/27 12:07:49;;;;;;;9.95;3.08;;;12.30;99.90;;;;;;5111371;28;20035;-74
2022/04/27 12:10:15;;;;;;;8.52;3.65;;;12.30;99.90;;;;;;5094625;28;20075;-75
2022/04/27 12:12:41;;;;;;;7.15;3.08;;;12.20;99.90;;;;;;5111854;28;20122;-73
2022/04/27 12:15:12;;;;;;;9.75;3.10;;;12.10;99.90;;;;;;5111298;28;20047;-74
2022/04/27 12:17:45;;;;;;;13.57;4.20;;;12.20;99.90;;;;;;5094088;28;20122;-74
2022/04/27 12:20:41;;;;;;;9.23;3.22;;;12.20;99.90;;;;;;5112651;28;20039;-75
2022/04/27 12:23:11;;;;;;;12.88;4.20;;;12.20;99.90;;;;;;5095433;28;20039;-75
2022/04/27 12:25:43;;;;;;;8.77;3.15;;;12.20;99.90;;;;;;5112469;28;20495;-74
2022/04/27 12:28:12;;;;;;;11.20;3.67;;;12.20;99.90;;;;;;5112194;28;20040;-74
2022/04/27 12:30:56;;;;;;;13.13;3.63;;;12.20;99.90;;;;;;5116428;28;20049;-74
2022/04/27 12:33:24;;;;;;;11.48;4.18;;;12.20;99.90;;;;;;5112538;28;20044;-75
2022/04/27 12:39:03;;;;;;;8.10;3.17;;;12.20;99.90;;;;;;5114765;28;20118;-74
2022/04/27 12:41:39;;;;;;;8.20;3.10;;;12.20;99.90;;;;;;5111290;28;20824;-74
2022/04/27 12:44:06;;;;;;;10.55;4.15;;;12.30;99.90;;;;;;5116031;28;20051;-73
2022/04/27 12:46:32;;;;;;;10.45;3.60;;;12.30;99.90;;;;;;5115962;28;20400;-74
2022/04/27 12:49:06;;;;;;;10.82;3.03;;;12.40;99.90;;;;;;5115836;28;20474;-74
2022/04/27 12:51:35;;;;;;;10.20;3.75;;;12.40;99.90;;;;;;5113675;28;20724;-74
2022/04/27 12:54:02;;;;;;;6.43;2.87;;;12.40;99.90;;;;;;5115871;28;20043;-74
2022/04/27 12:56:35;;;;;;;14.05;3.50;;;12.40;99.90;;;;;;5095771;28;20281;-74
2022/04/27 12:59:02;;;;;;;9.52;4.30;;;12.40;99.90;;;;;;5114632;28;20047;-74
2022/04/27 13:01:28;;;;;;;11.63;3.60;;;12.40;99.90;;;;;;5113142;28;20036;-74
2022/04/27 13:03:55;;;;;;;8.65;3.83;;;12.30;99.90;;;;;;5113968;28;20526;-73
2022/04/27 13:06:22;;;;;;;7.40;3.63;;;12.30;99.90;;;;;;5115061;28;20082;-74
2022/04/27 13:08:51;;;;;;;12.25;3.60;;;12.30;99.90;;;;;;5097300;28;20043;-72
2022/04/27 13:14:04;;;;;;;9.65;3.70;;;12.20;99.90;;;;;;5114785;28;20659;-74